»·PEaware :: SWA1649 KSFO-KPHX

SWA1649 :: KSFO-KPHX

FLIGHT INFORMATION

Flight Status: Arrived
Operator:
Southwest Airlines
More flights by this operator :: More flights under this callsign
Pilot: Walter P. (10403)
Aircraft: BOEING 737-800
(B738)
More flights by this aircraft type
Origin: KSFO San Francisco Intl
United States
Destination: KPHX Phoenix Sky Harbor Intl
United States
More flights between these airports :: More routes between these airports
Route: +SSTIK3 LOSHN BOILE BLH HYDRR1
File this flight plan on PilotEdge
Remarks:
Altitude:
(Current/Filed)
37,000ft
Speed:
(Current/Filed)
440kts
Departed: 10-May-18 01:02 PM
Arrived: 10-May-18 03:46 PM
Distance/Time
Traveled:
564nm/2:44
Distance/Time
To Go:
Arrived

Flight Plot

Page will automatically refresh every two minutes.

Flight plan parsing failed; only flown route is shown


Map Options




Map Legend


Flown Route
Filed Route
Departure Airport
Arrival Airport
Navaid (VOR, NDB)
Fix

Horizontal Profiles

Position Reports

Time Latitude Longitude Heading Altitude Ground
Speed
10-May-18 12:37 37.612636 -122.384669 6 17ft 0kts
10-May-18 12:38 37.612636 -122.384669 6 17ft 0kts
10-May-18 12:39 37.612636 -122.384669 6 17ft 0kts
10-May-18 12:40 37.612636 -122.384669 6 17ft 0kts
10-May-18 12:41 37.612636 -122.384669 6 17ft 0kts
10-May-18 12:42 37.612636 -122.384669 6 17ft 0kts
10-May-18 12:43 37.612636 -122.384669 6 17ft 0kts
10-May-18 12:44 37.612636 -122.384669 6 17ft 0kts
10-May-18 12:45 37.612636 -122.384669 6 17ft 0kts
10-May-18 12:46 37.612636 -122.384669 6 17ft 0kts
10-May-18 12:47 37.612636 -122.384669 6 17ft 0kts
10-May-18 12:48 37.612636 -122.384669 6 17ft 0kts
10-May-18 12:49 37.612636 -122.384669 6 17ft 0kts
10-May-18 12:50 37.612636 -122.384669 6 17ft 0kts
10-May-18 12:51 37.612409 -122.384700 6 17ft 2kts
10-May-18 12:52 37.611824 -122.384797 34 17ft 2kts
10-May-18 12:53 37.611717 -122.384996 67 16ft 0kts
10-May-18 12:54 37.611717 -122.384996 67 16ft 0kts
10-May-18 12:55 37.611717 -122.384996 67 16ft 0kts
10-May-18 12:56 37.611717 -122.384996 67 16ft 0kts
10-May-18 12:57 37.611547 -122.384725 194 17ft 3kts
10-May-18 12:58 37.609680 -122.384418 213 17ft 7kts
10-May-18 12:59 37.608463 -122.383865 120 17ft 0kts
10-May-18 13:00 37.608463 -122.383865 120 17ft 0kts
10-May-18 13:01 37.608320 -122.383560 118 16ft 6kts
10-May-18 13:02 37.617923 -122.376433 28 16ft 102kts
10-May-18 13:05 37.612636 -122.384669 6 17ft 0kts
10-May-18 13:06 37.612636 -122.384669 6 17ft 0kts
10-May-18 13:07 37.612636 -122.384669 6 17ft 0kts
10-May-18 13:08 37.612636 -122.384669 6 17ft 0kts
10-May-18 13:09 37.612636 -122.384669 6 17ft 0kts
10-May-18 13:10 37.612636 -122.384669 6 17ft 0kts
10-May-18 13:11 37.612636 -122.384669 6 17ft 0kts
10-May-18 13:12 37.612636 -122.384669 6 17ft 0kts
10-May-18 13:13 37.612636 -122.384669 6 17ft 0kts
10-May-18 13:14 37.612636 -122.384669 6 17ft 0kts
10-May-18 13:15 37.612636 -122.384669 6 17ft 0kts
10-May-18 13:16 37.612636 -122.384669 6 17ft 0kts
10-May-18 13:17 37.612636 -122.384669 6 17ft 0kts
10-May-18 13:18 37.612636 -122.384669 6 17ft 0kts
10-May-18 13:19 37.612636 -122.384669 6 17ft 0kts
10-May-18 13:20 37.612636 -122.384669 6 17ft 0kts
10-May-18 13:21 37.612636 -122.384669 6 17ft 0kts
10-May-18 13:22 37.612246 -122.384722 6 17ft 2kts
10-May-18 13:23 37.611741 -122.384908 68 17ft 0kts
10-May-18 13:24 37.611716 -122.385001 66 16ft 0kts
10-May-18 13:25 37.611716 -122.385001 66 16ft 0kts
10-May-18 13:26 37.611716 -122.385001 66 16ft 0kts
10-May-18 13:27 37.611732 -122.384935 79 17ft 1kts
10-May-18 13:28 37.610019 -122.384192 193 17ft 7kts
10-May-18 13:29 37.609100 -122.383453 123 17ft 0kts
10-May-18 13:30 37.608962 -122.383169 118 17ft 6kts
10-May-18 13:31 37.621608 -122.373812 24 26ft 175kts
10-May-18 13:32 37.667701 -122.352328 331 3433ft 178kts
10-May-18 13:33 37.672965 -122.401463 223 5666ft 228kts
10-May-18 13:34 37.610589 -122.429749 200 8346ft 278kts
10-May-18 13:35 37.533862 -122.458292 199 10048ft 308kts
10-May-18 13:36 37.451815 -122.427360 131 12927ft 353kts
10-May-18 13:37 37.393265 -122.329047 129 15923ft 373kts
10-May-18 13:38 37.328920 -122.227537 130 18538ft 393kts
10-May-18 13:39 37.260919 -122.121782 130 20972ft 409kts
10-May-18 13:40 37.191240 -122.014115 130 23195ft 423kts
10-May-18 13:41 37.117794 -121.901177 129 25195ft 438kts
10-May-18 13:42 37.040686 -121.783118 129 27147ft 452kts
10-May-18 13:43 36.960934 -121.661501 128 28961ft 466kts
10-May-18 13:44 36.879844 -121.538350 128 30943ft 469kts
10-May-18 13:45 36.797575 -121.413907 128 32943ft 465kts
10-May-18 13:46 36.719974 -121.296908 128 34735ft 458kts
10-May-18 13:47 36.642409 -121.180234 128 36174ft 454kts
10-May-18 13:48 36.565778 -121.065406 128 37012ft 463kts
10-May-18 13:49 36.481593 -120.939698 128 37064ft 492kts
10-May-18 13:50 36.395364 -120.810514 128 37014ft 494kts
10-May-18 13:51 36.309201 -120.681882 128 36966ft 491kts
10-May-18 13:52 36.222578 -120.553112 128 36983ft 489kts
10-May-18 13:53 36.136398 -120.425495 128 36969ft 490kts
10-May-18 13:54 36.051808 -120.300660 129 36966ft 490kts
10-May-18 13:55 35.968285 -120.177700 129 36967ft 488kts
10-May-18 13:56 35.884965 -120.055556 129 36959ft 489kts
10-May-18 13:57 35.799433 -119.932004 130 36961ft 489kts
10-May-18 13:58 35.715526 -119.814472 131 36941ft 487kts
10-May-18 13:59 35.634797 -119.703259 131 36943ft 486kts
10-May-18 14:00 35.547107 -119.582830 131 36946ft 487kts
10-May-18 14:01 35.458518 -119.461042 131 36947ft 486kts
10-May-18 14:02 35.370665 -119.340067 132 36937ft 486kts
10-May-18 14:03 35.311730 -119.258763 132 36934ft 486kts
10-May-18 14:04 35.226221 -119.140694 132 36935ft 481kts
10-May-18 14:05 35.143304 -119.026136 132 36936ft 482kts
10-May-18 14:06 35.068580 -118.922781 132 36938ft 482kts
10-May-18 14:07 34.980424 -118.800694 132 37059ft 483kts
10-May-18 14:08 34.894183 -118.681041 132 37056ft 481kts
10-May-18 14:09 34.808572 -118.562187 132 37057ft 481kts
10-May-18 14:10 34.722210 -118.442116 133 37059ft 477kts
10-May-18 14:11 34.638772 -118.325989 133 36897ft 476kts
10-May-18 14:12 34.591259 -118.259749 133 36897ft 477kts
10-May-18 14:13 34.507856 -118.143380 134 36908ft 474kts
10-May-18 14:14 34.424749 -118.020929 120 36906ft 479kts
10-May-18 14:15 34.383387 -117.868369 108 36908ft 483kts
10-May-18 14:16 34.344233 -117.716340 109 36912ft 485kts
10-May-18 14:17 34.305470 -117.569420 109 36939ft 484kts
10-May-18 14:18 34.272002 -117.442190 109 36940ft 485kts
10-May-18 14:19 34.225448 -117.264172 110 36904ft 484kts
10-May-18 14:20 34.185169 -117.109446 110 36905ft 486kts
10-May-18 14:21 34.151967 -116.981378 110 36989ft 485kts
10-May-18 14:22 34.112167 -116.827198 110 37119ft 487kts
10-May-18 14:23 34.072171 -116.671482 110 37123ft 490kts
10-May-18 14:24 34.032335 -116.515655 110 37041ft 489kts
10-May-18 14:25 33.992627 -116.359553 110 36778ft 488kts
10-May-18 14:26 33.954725 -116.209630 110 36793ft 487kts
10-May-18 14:27 33.915717 -116.054732 110 36722ft 485kts
10-May-18 14:28 33.877185 -115.901071 110 36727ft 487kts
10-May-18 14:29 33.838976 -115.747956 110 36729ft 487kts
10-May-18 14:30 33.801262 -115.596115 109 36731ft 486kts
10-May-18 14:31 33.763560 -115.443610 109 36731ft 485kts
10-May-18 14:32 33.726230 -115.291843 109 36379ft 480kts
10-May-18 14:33 33.689344 -115.141068 109 35395ft 478kts
10-May-18 14:34 33.652054 -114.988121 109 34091ft 482kts
10-May-18 14:35 33.614875 -114.834971 108 32220ft 481kts
10-May-18 14:36 33.580810 -114.680660 105 30362ft 481kts
10-May-18 14:37 33.550398 -114.524716 105 28494ft 487kts
10-May-18 14:38 33.519342 -114.366590 105 26543ft 493kts
10-May-18 14:39 33.488621 -114.210997 106 24612ft 499kts
10-May-18 14:40 33.457440 -114.054223 106 22776ft 503kts
10-May-18 14:41 33.426435 -113.899273 106 22788ft 436kts
10-May-18 14:42 33.398737 -113.761612 106 21815ft 419kts
10-May-18 14:43 33.371323 -113.626432 106 21800ft 419kts
10-May-18 14:44 33.343591 -113.490574 106 19434ft 423kts
10-May-18 14:45 33.319055 -113.356301 104 17530ft 393kts
10-May-18 14:46 33.298054 -113.234931 104 16476ft 386kts
10-May-18 14:47 33.280331 -113.115155 102 15390ft 356kts
10-May-18 14:48 33.273571 -112.997465 89 13815ft 359kts
10-May-18 14:49 33.277571 -112.880501 89 11922ft 347kts
10-May-18 14:50 33.290103 -112.771116 81 10989ft 308kts
10-May-18 14:51 33.303216 -112.670669 86 11003ft 314kts
10-May-18 14:52 33.310163 -112.566617 86 11000ft 314kts
10-May-18 14:53 33.316828 -112.463668 86 11019ft 315kts
10-May-18 14:54 33.323511 -112.359439 86 11019ft 315kts
10-May-18 14:55 33.331845 -112.263923 85 10544ft 298kts
10-May-18 14:56 33.340454 -112.170294 85 9637ft 284kts
10-May-18 14:57 33.348148 -112.083062 90 8970ft 261kts
10-May-18 14:58 33.347488 -112.010528 92 8152ft 266kts
10-May-18 14:59 33.347617 -111.981406 89 8022ft 256kts
10-May-18 15:00 33.350649 -111.902051 88 7082ft 248kts
10-May-18 15:01 33.353213 -111.825699 88 5615ft 245kts
10-May-18 15:02 33.355811 -111.748648 88 5023ft 242kts
10-May-18 15:03 33.364729 -111.673241 48 4989ft 239kts
10-May-18 15:04 33.418745 -111.664121 313 4654ft 196kts
10-May-18 15:05 33.428447 -111.719254 268 4201ft 184kts
10-May-18 15:06 33.428444 -111.777224 268 4021ft 184kts
10-May-18 15:07 33.428584 -111.836580 268 3799ft 188kts
10-May-18 15:08 33.428695 -111.895640 270 2859ft 187kts
10-May-18 15:09 33.428787 -111.948647 270 1996ft 155kts
10-May-18 15:10 33.428854 -111.997687 270 1278ft 165kts
10-May-18 15:11 33.429207 -112.051166 274 1937ft 191kts
10-May-18 15:12 33.432529 -112.109594 269 3309ft 198kts
10-May-18 15:13 33.432492 -112.180209 267 4956ft 226kts
10-May-18 15:14 33.411338 -112.244220 206 4997ft 228kts
10-May-18 15:15 33.359417 -112.218074 113 4998ft 246kts
10-May-18 15:16 33.356315 -112.139846 89 4986ft 250kts
10-May-18 15:17 33.358965 -112.060376 89 4981ft 253kts
10-May-18 15:18 33.360899 -111.980531 89 4981ft 254kts
10-May-18 15:19 33.362078 -111.899478 89 4710ft 245kts
10-May-18 15:20 33.362888 -111.822261 89 3680ft 238kts
10-May-18 15:21 33.368602 -111.745281 53 3054ft 234kts
10-May-18 15:22 33.423021 -111.742722 303 3045ft 218kts
10-May-18 15:23 33.429048 -111.806269 267 3036ft 203kts
10-May-18 15:24 33.428667 -111.871567 269 2995ft 202kts
10-May-18 15:25 33.428773 -111.937512 270 2185ft 202kts
10-May-18 15:26 33.428736 -111.997910 270 1313ft 159kts
10-May-18 15:27 33.429496 -112.058441 271 1933ft 258kts
10-May-18 15:28 33.436026 -112.134007 254 2719ft 207kts
10-May-18 15:29 33.388210 -112.174016 181 3254ft 225kts
10-May-18 15:30 33.330520 -112.149565 168 4014ft 216kts
10-May-18 15:31 33.270809 -112.123665 149 3993ft 240kts
10-May-18 15:32 33.219546 -112.076344 116 3726ft 239kts
10-May-18 15:33 33.232017 -112.006028 54 3034ft 228kts
10-May-18 15:34 33.256359 -111.942189 69 2421ft 210kts
10-May-18 15:35 33.262746 -111.875315 111 2845ft 225kts
10-May-18 15:36 33.276623 -111.817230 6 3003ft 222kts
10-May-18 15:37 33.336105 -111.820908 349 3141ft 219kts
10-May-18 15:38 33.393928 -111.835406 339 3249ft 221kts
10-May-18 15:39 33.431600 -111.872806 267 2584ft 187kts
10-May-18 15:40 33.446939 -111.911497 36 1609ft 248kts
10-May-18 15:41 33.479624 -111.853893 88 2914ft 219kts
10-May-18 15:42 33.445429 -111.828562 231 3277ft 187kts
10-May-18 15:43 33.430948 -111.884857 264 2542ft 175kts
10-May-18 15:44 33.431386 -111.941378 267 2084ft 172kts
10-May-18 15:45 33.431055 -111.996911 270 1137ft 160kts
10-May-18 15:46 33.431450 -112.015504 317 1117ft 0kts

Navigation Log

Ident Type
Flight plan parsing failed, navigation log unavailable